Salt Lake City, Utah
Traffic Map
Current Weather Conditions
Salt Lake City, Utah
Broken Clouds
Broken Clouds
40°
Feels Like: 36°
Wind Chill: 36° Ceiling: 5500
Heat Index: 40° Visibility: 10mi
Dew Point: 25° Wind: 6mph
Humidity: 55% Direction: 260° (W)
Pressure: 30.35in Gusts: 0mph
Raw Report DataKSLC 231954Z 26005KT 10SM BKN055 BKN200 04/M04 A3035 RMK AO2 SLP288 T00441039
Traffic Incident Summary
Active as of:
Severity:
Category:
InformationThere was an issue retrieving the traffic information for this location. Please try a different location or try again shortly.
Advertisements